sensor_id;sensor_type;location;lat;lon;timestamp;P1;durP1;ratioP1;P2;durP2;ratioP2
11344;SDS011;5727;42.600;23.028;2023-05-14T00:01:17;5.53;;;3.10;;
11344;SDS011;5727;42.600;23.028;2023-05-14T00:03:43;4.67;;;3.17;;
11344;SDS011;5727;42.600;23.028;2023-05-14T00:06:12;3.77;;;2.83;;
11344;SDS011;5727;42.600;23.028;2023-05-14T00:08:38;3.93;;;3.50;;
11344;SDS011;5727;42.600;23.028;2023-05-14T00:11:05;4.67;;;3.10;;
11344;SDS011;5727;42.600;23.028;2023-05-14T00:13:33;4.03;;;2.90;;
11344;SDS011;5727;42.600;23.028;2023-05-14T00:15:59;3.63;;;3.37;;
11344;SDS011;5727;42.600;23.028;2023-05-14T00:18:26;4.30;;;2.97;;
11344;SDS011;5727;42.600;23.028;2023-05-14T00:20:53;4.67;;;2.97;;
11344;SDS011;5727;42.600;23.028;2023-05-14T00:23:22;4.27;;;3.27;;
11344;SDS011;5727;42.600;23.028;2023-05-14T00:25:49;3.80;;;3.27;;
11344;SDS011;5727;42.600;23.028;2023-05-14T00:28:15;4.20;;;3.50;;
11344;SDS011;5727;42.600;23.028;2023-05-14T00:30:42;6.13;;;3.50;;
11344;SDS011;5727;42.600;23.028;2023-05-14T00:33:09;4.60;;;4.20;;
11344;SDS011;5727;42.600;23.028;2023-05-14T00:35:36;4.23;;;3.83;;
11344;SDS011;5727;42.600;23.028;2023-05-14T00:38:03;5.53;;;3.70;;
11344;SDS011;5727;42.600;23.028;2023-05-14T00:40:31;6.27;;;3.37;;
11344;SDS011;5727;42.600;23.028;2023-05-14T00:42:58;5.50;;;3.13;;
11344;SDS011;5727;42.600;23.028;2023-05-14T00:45:25;5.40;;;3.70;;
11344;SDS011;5727;42.600;23.028;2023-05-14T00:47:52;5.03;;;3.10;;
11344;SDS011;5727;42.600;23.028;2023-05-14T00:50:19;4.27;;;3.50;;
11344;SDS011;5727;42.600;23.028;2023-05-14T00:52:46;4.63;;;3.33;;
11344;SDS011;5727;42.600;23.028;2023-05-14T00:55:14;4.90;;;3.57;;
11344;SDS011;5727;42.600;23.028;2023-05-14T00:57:43;4.10;;;3.73;;
11344;SDS011;5727;42.600;23.028;2023-05-14T01:00:10;6.97;;;3.43;;
11344;SDS011;5727;42.600;23.028;2023-05-14T01:02:37;4.10;;;3.67;;
11344;SDS011;5727;42.600;23.028;2023-05-14T01:05:04;4.03;;;3.73;;
11344;SDS011;5727;42.600;23.028;2023-05-14T01:07:35;7.30;;;4.53;;
11344;SDS011;5727;42.600;23.028;2023-05-14T01:10:08;5.27;;;4.03;;
11344;SDS011;5727;42.600;23.028;2023-05-14T01:12:41;7.90;;;4.50;;
11344;SDS011;5727;42.600;23.028;2023-05-14T01:15:21;8.97;;;5.27;;
11344;SDS011;5727;42.600;23.028;2023-05-14T01:17:52;9.33;;;5.03;;
11344;SDS011;5727;42.600;23.028;2023-05-14T01:20:20;9.37;;;5.07;;
11344;SDS011;5727;42.600;23.028;2023-05-14T01:22:49;7.77;;;4.90;;
11344;SDS011;5727;42.600;23.028;2023-05-14T01:25:16;9.07;;;5.27;;
11344;SDS011;5727;42.600;23.028;2023-05-14T01:27:44;10.10;;;5.60;;
11344;SDS011;5727;42.600;23.028;2023-05-14T01:30:18;9.30;;;5.70;;
11344;SDS011;5727;42.600;23.028;2023-05-14T01:32:50;7.13;;;4.67;;
11344;SDS011;5727;42.600;23.028;2023-05-14T01:35:21;8.23;;;4.77;;
11344;SDS011;5727;42.600;23.028;2023-05-14T01:37:52;7.73;;;5.57;;
11344;SDS011;5727;42.600;23.028;2023-05-14T01:40:21;7.23;;;5.80;;
11344;SDS011;5727;42.600;23.028;2023-05-14T01:42:49;8.53;;;5.90;;
11344;SDS011;5727;42.600;23.028;2023-05-14T01:45:16;9.07;;;5.73;;
11344;SDS011;5727;42.600;23.028;2023-05-14T01:47:43;6.27;;;5.10;;
11344;SDS011;5727;42.600;23.028;2023-05-14T01:50:10;5.20;;;4.70;;
11344;SDS011;5727;42.600;23.028;2023-05-14T01:52:36;8.37;;;5.50;;
11344;SDS011;5727;42.600;23.028;2023-05-14T01:55:05;6.37;;;4.33;;
11344;SDS011;5727;42.600;23.028;2023-05-14T01:57:32;6.03;;;4.23;;
11344;SDS011;5727;42.600;23.028;2023-05-14T01:59:59;6.23;;;4.40;;
11344;SDS011;5727;42.600;23.028;2023-05-14T02:02:26;6.97;;;5.30;;
11344;SDS011;5727;42.600;23.028;2023-05-14T02:04:52;9.27;;;6.60;;
11344;SDS011;5727;42.600;23.028;2023-05-14T02:07:19;9.03;;;5.80;;
11344;SDS011;5727;42.600;23.028;2023-05-14T02:09:46;11.90;;;6.17;;
11344;SDS011;5727;42.600;23.028;2023-05-14T02:12:14;7.13;;;5.33;;
11344;SDS011;5727;42.600;23.028;2023-05-14T02:14:41;8.23;;;6.17;;
11344;SDS011;5727;42.600;23.028;2023-05-14T02:17:07;12.97;;;7.67;;
11344;SDS011;5727;42.600;23.028;2023-05-14T02:19:34;11.47;;;7.03;;
11344;SDS011;5727;42.600;23.028;2023-05-14T02:22:01;9.30;;;6.60;;
11344;SDS011;5727;42.600;23.028;2023-05-14T02:24:27;9.37;;;6.97;;
11344;SDS011;5727;42.600;23.028;2023-05-14T02:26:54;10.80;;;6.60;;
11344;SDS011;5727;42.600;23.028;2023-05-14T02:29:25;7.57;;;5.93;;
11344;SDS011;5727;42.600;23.028;2023-05-14T02:31:52;5.70;;;5.00;;
11344;SDS011;5727;42.600;23.028;2023-05-14T02:34:18;9.20;;;5.00;;
11344;SDS011;5727;42.600;23.028;2023-05-14T02:36:45;5.43;;;4.90;;
11344;SDS011;5727;42.600;23.028;2023-05-14T02:39:12;6.20;;;4.83;;
11344;SDS011;5727;42.600;23.028;2023-05-14T02:41:39;6.90;;;5.17;;
11344;SDS011;5727;42.600;23.028;2023-05-14T02:44:05;8.10;;;4.70;;
11344;SDS011;5727;42.600;23.028;2023-05-14T02:46:33;5.30;;;4.80;;
11344;SDS011;5727;42.600;23.028;2023-05-14T02:49:00;7.67;;;6.53;;
11344;SDS011;5727;42.600;23.028;2023-05-14T02:51:27;10.20;;;7.70;;
11344;SDS011;5727;42.600;23.028;2023-05-14T02:53:54;15.97;;;7.90;;
11344;SDS011;5727;42.600;23.028;2023-05-14T02:56:20;14.33;;;8.37;;
11344;SDS011;5727;42.600;23.028;2023-05-14T02:58:47;15.43;;;9.40;;
11344;SDS011;5727;42.600;23.028;2023-05-14T03:01:14;14.13;;;8.97;;
11344;SDS011;5727;42.600;23.028;2023-05-14T03:03:44;18.30;;;9.57;;
11344;SDS011;5727;42.600;23.028;2023-05-14T03:06:10;15.80;;;9.20;;
11344;SDS011;5727;42.600;23.028;2023-05-14T03:08:37;12.77;;;8.27;;
11344;SDS011;5727;42.600;23.028;2023-05-14T03:11:04;14.40;;;7.90;;
11344;SDS011;5727;42.600;23.028;2023-05-14T03:13:31;9.13;;;6.97;;
11344;SDS011;5727;42.600;23.028;2023-05-14T03:15:57;9.83;;;6.73;;
11344;SDS011;5727;42.600;23.028;2023-05-14T03:18:24;10.23;;;6.63;;
11344;SDS011;5727;42.600;23.028;2023-05-14T03:20:53;9.07;;;7.60;;
11344;SDS011;5727;42.600;23.028;2023-05-14T03:23:20;15.30;;;8.83;;
11344;SDS011;5727;42.600;23.028;2023-05-14T03:25:47;21.03;;;11.13;;
11344;SDS011;5727;42.600;23.028;2023-05-14T03:28:13;24.27;;;10.53;;
11344;SDS011;5727;42.600;23.028;2023-05-14T03:30:40;16.60;;;9.70;;
11344;SDS011;5727;42.600;23.028;2023-05-14T03:33:07;15.33;;;9.37;;
11344;SDS011;5727;42.600;23.028;2023-05-14T03:35:34;18.30;;;10.00;;
11344;SDS011;5727;42.600;23.028;2023-05-14T03:38:02;14.10;;;8.67;;
11344;SDS011;5727;42.600;23.028;2023-05-14T03:40:28;14.90;;;9.70;;
11344;SDS011;5727;42.600;23.028;2023-05-14T03:42:55;16.50;;;9.40;;
11344;SDS011;5727;42.600;23.028;2023-05-14T03:45:22;15.70;;;9.83;;
11344;SDS011;5727;42.600;23.028;2023-05-14T03:47:51;18.30;;;10.20;;
11344;SDS011;5727;42.600;23.028;2023-05-14T03:50:17;22.93;;;11.37;;
11344;SDS011;5727;42.600;23.028;2023-05-14T03:52:44;18.70;;;10.53;;
11344;SDS011;5727;42.600;23.028;2023-05-14T03:55:12;18.17;;;10.37;;
11344;SDS011;5727;42.600;23.028;2023-05-14T03:57:39;15.67;;;9.03;;
11344;SDS011;5727;42.600;23.028;2023-05-14T04:00:06;26.40;;;10.67;;
11344;SDS011;5727;42.600;23.028;2023-05-14T04:02:33;20.13;;;11.20;;
11344;SDS011;5727;42.600;23.028;2023-05-14T04:05:00;22.53;;;11.33;;
11344;SDS011;5727;42.600;23.028;2023-05-14T04:07:27;26.07;;;10.87;;
11344;SDS011;5727;42.600;23.028;2023-05-14T04:09:54;25.57;;;11.87;;
11344;SDS011;5727;42.600;23.028;2023-05-14T04:12:22;23.60;;;11.10;;
11344;SDS011;5727;42.600;23.028;2023-05-14T04:14:49;25.30;;;10.07;;
11344;SDS011;5727;42.600;23.028;2023-05-14T04:17:15;15.77;;;9.47;;
11344;SDS011;5727;42.600;23.028;2023-05-14T04:19:42;18.50;;;9.67;;
11344;SDS011;5727;42.600;23.028;2023-05-14T04:22:09;18.20;;;9.20;;
11344;SDS011;5727;42.600;23.028;2023-05-14T04:24:35;10.77;;;8.20;;
11344;SDS011;5727;42.600;23.028;2023-05-14T04:27:02;14.07;;;8.73;;
11344;SDS011;5727;42.600;23.028;2023-05-14T04:29:31;13.10;;;8.93;;
11344;SDS011;5727;42.600;23.028;2023-05-14T04:31:58;13.70;;;9.27;;
11344;SDS011;5727;42.600;23.028;2023-05-14T04:34:25;11.73;;;8.27;;
11344;SDS011;5727;42.600;23.028;2023-05-14T04:36:51;10.13;;;7.80;;
11344;SDS011;5727;42.600;23.028;2023-05-14T04:39:18;13.57;;;8.63;;
11344;SDS011;5727;42.600;23.028;2023-05-14T04:41:45;12.33;;;8.23;;
11344;SDS011;5727;42.600;23.028;2023-05-14T04:44:11;9.70;;;8.27;;
11344;SDS011;5727;42.600;23.028;2023-05-14T04:46:39;9.47;;;8.00;;
11344;SDS011;5727;42.600;23.028;2023-05-14T04:49:06;9.93;;;8.40;;
11344;SDS011;5727;42.600;23.028;2023-05-14T04:51:33;13.97;;;9.77;;
11344;SDS011;5727;42.600;23.028;2023-05-14T04:54:00;10.63;;;8.93;;
11344;SDS011;5727;42.600;23.028;2023-05-14T04:56:26;13.40;;;9.27;;
11344;SDS011;5727;42.600;23.028;2023-05-14T04:58:53;16.63;;;10.40;;
11344;SDS011;5727;42.600;23.028;2023-05-14T05:01:20;12.53;;;10.03;;
11344;SDS011;5727;42.600;23.028;2023-05-14T05:03:48;17.27;;;10.87;;
11344;SDS011;5727;42.600;23.028;2023-05-14T05:06:15;13.27;;;10.37;;
11344;SDS011;5727;42.600;23.028;2023-05-14T05:08:42;14.60;;;10.17;;
11344;SDS011;5727;42.600;23.028;2023-05-14T05:11:08;12.93;;;9.83;;
11344;SDS011;5727;42.600;23.028;2023-05-14T05:13:35;14.87;;;9.80;;
11344;SDS011;5727;42.600;23.028;2023-05-14T05:16:02;12.53;;;10.07;;
11344;SDS011;5727;42.600;23.028;2023-05-14T05:18:29;10.60;;;9.30;;
11344;SDS011;5727;42.600;23.028;2023-05-14T05:20:57;11.23;;;10.00;;
11344;SDS011;5727;42.600;23.028;2023-05-14T05:23:24;12.80;;;10.33;;
11344;SDS011;5727;42.600;23.028;2023-05-14T05:25:50;13.70;;;10.93;;
11344;SDS011;5727;42.600;23.028;2023-05-14T05:28:17;13.80;;;10.47;;
11344;SDS011;5727;42.600;23.028;2023-05-14T05:30:44;14.47;;;10.30;;
11344;SDS011;5727;42.600;23.028;2023-05-14T05:33:10;16.27;;;10.83;;
11344;SDS011;5727;42.600;23.028;2023-05-14T05:35:38;15.33;;;9.43;;
11344;SDS011;5727;42.600;23.028;2023-05-14T05:38:06;10.57;;;9.33;;
11344;SDS011;5727;42.600;23.028;2023-05-14T05:40:32;11.17;;;8.70;;
11344;SDS011;5727;42.600;23.028;2023-05-14T05:42:59;12.47;;;9.50;;
11344;SDS011;5727;42.600;23.028;2023-05-14T05:45:26;10.37;;;8.70;;
11344;SDS011;5727;42.600;23.028;2023-05-14T05:47:52;9.40;;;7.23;;
11344;SDS011;5727;42.600;23.028;2023-05-14T05:50:19;7.63;;;6.47;;
11344;SDS011;5727;42.600;23.028;2023-05-14T05:52:46;7.07;;;6.40;;
11344;SDS011;5727;42.600;23.028;2023-05-14T05:55:14;7.10;;;6.03;;
11344;SDS011;5727;42.600;23.028;2023-05-14T05:57:41;7.40;;;6.33;;
11344;SDS011;5727;42.600;23.028;2023-05-14T06:00:08;7.17;;;6.33;;
11344;SDS011;5727;42.600;23.028;2023-05-14T06:02:38;7.27;;;6.53;;
11344;SDS011;5727;42.600;23.028;2023-05-14T06:05:05;7.80;;;7.00;;
11344;SDS011;5727;42.600;23.028;2023-05-14T06:07:33;9.33;;;6.67;;
11344;SDS011;5727;42.600;23.028;2023-05-14T06:10:00;8.97;;;6.83;;
11344;SDS011;5727;42.600;23.028;2023-05-14T06:12:28;8.33;;;7.30;;
11344;SDS011;5727;42.600;23.028;2023-05-14T06:14:55;8.97;;;7.00;;
11344;SDS011;5727;42.600;23.028;2023-05-14T06:17:22;7.20;;;6.47;;
11344;SDS011;5727;42.600;23.028;2023-05-14T06:19:49;6.97;;;6.20;;
11344;SDS011;5727;42.600;23.028;2023-05-14T06:22:17;7.37;;;6.57;;
11344;SDS011;5727;42.600;23.028;2023-05-14T06:24:43;6.77;;;5.90;;
11344;SDS011;5727;42.600;23.028;2023-05-14T06:27:10;8.73;;;6.67;;
11344;SDS011;5727;42.600;23.028;2023-05-14T06:29:38;7.37;;;6.07;;
11344;SDS011;5727;42.600;23.028;2023-05-14T06:32:05;8.43;;;7.00;;
11344;SDS011;5727;42.600;23.028;2023-05-14T06:34:32;8.37;;;7.43;;
11344;SDS011;5727;42.600;23.028;2023-05-14T06:36:59;8.73;;;7.47;;
11344;SDS011;5727;42.600;23.028;2023-05-14T06:39:28;9.23;;;7.60;;
11344;SDS011;5727;42.600;23.028;2023-05-14T06:41:54;14.47;;;8.80;;
11344;SDS011;5727;42.600;23.028;2023-05-14T06:44:21;15.97;;;9.07;;
11344;SDS011;5727;42.600;23.028;2023-05-14T06:46:49;11.87;;;8.50;;
11344;SDS011;5727;42.600;23.028;2023-05-14T06:49:16;11.80;;;9.73;;
11344;SDS011;5727;42.600;23.028;2023-05-14T06:51:43;16.87;;;10.50;;
11344;SDS011;5727;42.600;23.028;2023-05-14T06:54:09;25.97;;;16.53;;
11344;SDS011;5727;42.600;23.028;2023-05-14T06:56:36;27.20;;;17.73;;
11344;SDS011;5727;42.600;23.028;2023-05-14T06:59:03;22.93;;;16.30;;
11344;SDS011;5727;42.600;23.028;2023-05-14T07:01:29;8.43;;;7.17;;
11344;SDS011;5727;42.600;23.028;2023-05-14T07:03:58;11.53;;;9.87;;
11344;SDS011;5727;42.600;23.028;2023-05-14T07:06:24;11.47;;;9.13;;
11344;SDS011;5727;42.600;23.028;2023-05-14T07:08:51;14.10;;;9.63;;
11344;SDS011;5727;42.600;23.028;2023-05-14T07:11:18;13.47;;;10.40;;
11344;SDS011;5727;42.600;23.028;2023-05-14T07:13:46;16.43;;;11.23;;
11344;SDS011;5727;42.600;23.028;2023-05-14T07:16:12;18.93;;;14.27;;
11344;SDS011;5727;42.600;23.028;2023-05-14T07:18:39;16.07;;;14.23;;
11344;SDS011;5727;42.600;23.028;2023-05-14T07:21:07;13.50;;;9.80;;
11344;SDS011;5727;42.600;23.028;2023-05-14T07:23:34;14.10;;;9.87;;
11344;SDS011;5727;42.600;23.028;2023-05-14T07:26:04;13.43;;;10.43;;
11344;SDS011;5727;42.600;23.028;2023-05-14T07:28:31;18.17;;;13.47;;
11344;SDS011;5727;42.600;23.028;2023-05-14T07:30:58;17.63;;;13.67;;
11344;SDS011;5727;42.600;23.028;2023-05-14T07:33:25;16.30;;;14.20;;
11344;SDS011;5727;42.600;23.028;2023-05-14T07:35:52;19.03;;;16.13;;
11344;SDS011;5727;42.600;23.028;2023-05-14T07:38:20;19.97;;;14.47;;
11344;SDS011;5727;42.600;23.028;2023-05-14T07:40:47;20.07;;;14.00;;
11344;SDS011;5727;42.600;23.028;2023-05-14T07:43:14;23.87;;;16.87;;
11344;SDS011;5727;42.600;23.028;2023-05-14T07:45:40;20.87;;;13.37;;
11344;SDS011;5727;42.600;23.028;2023-05-14T07:48:07;22.17;;;16.37;;
11344;SDS011;5727;42.600;23.028;2023-05-14T07:50:34;29.93;;;19.07;;
11344;SDS011;5727;42.600;23.028;2023-05-14T07:53:00;24.70;;;18.87;;
11344;SDS011;5727;42.600;23.028;2023-05-14T07:55:28;26.10;;;17.47;;
11344;SDS011;5727;42.600;23.028;2023-05-14T07:57:55;22.83;;;16.63;;
11344;SDS011;5727;42.600;23.028;2023-05-14T08:00:22;25.70;;;19.37;;
11344;SDS011;5727;42.600;23.028;2023-05-14T08:02:48;31.03;;;20.50;;
11344;SDS011;5727;42.600;23.028;2023-05-14T08:05:15;62.43;;;23.60;;
11344;SDS011;5727;42.600;23.028;2023-05-14T08:07:42;45.43;;;30.50;;
11344;SDS011;5727;42.600;23.028;2023-05-14T08:10:09;45.37;;;31.60;;
11344;SDS011;5727;42.600;23.028;2023-05-14T08:12:38;36.67;;;24.70;;
11344;SDS011;5727;42.600;23.028;2023-05-14T08:15:05;35.33;;;19.83;;
11344;SDS011;5727;42.600;23.028;2023-05-14T08:17:33;28.97;;;19.10;;
11344;SDS011;5727;42.600;23.028;2023-05-14T08:20:00;23.10;;;16.97;;
11344;SDS011;5727;42.600;23.028;2023-05-14T08:22:27;26.17;;;18.00;;
11344;SDS011;5727;42.600;23.028;2023-05-14T08:24:53;23.47;;;17.53;;
11344;SDS011;5727;42.600;23.028;2023-05-14T08:27:20;19.67;;;16.90;;
11344;SDS011;5727;42.600;23.028;2023-05-14T08:29:48;21.77;;;15.17;;
11344;SDS011;5727;42.600;23.028;2023-05-14T08:32:15;13.83;;;12.23;;
11344;SDS011;5727;42.600;23.028;2023-05-14T08:34:42;16.93;;;10.40;;
11344;SDS011;5727;42.600;23.028;2023-05-14T08:37:08;11.17;;;10.07;;
11344;SDS011;5727;42.600;23.028;2023-05-14T08:39:35;10.97;;;9.80;;
11344;SDS011;5727;42.600;23.028;2023-05-14T08:42:02;12.83;;;10.07;;
11344;SDS011;5727;42.600;23.028;2023-05-14T08:44:32;11.37;;;9.97;;
11344;SDS011;5727;42.600;23.028;2023-05-14T08:47:05;11.40;;;10.20;;
11344;SDS011;5727;42.600;23.028;2023-05-14T08:49:35;15.77;;;11.83;;
11344;SDS011;5727;42.600;23.028;2023-05-14T08:52:05;12.87;;;10.83;;
11344;SDS011;5727;42.600;23.028;2023-05-14T08:54:32;14.07;;;10.80;;
11344;SDS011;5727;42.600;23.028;2023-05-14T08:56:59;12.93;;;11.03;;
11344;SDS011;5727;42.600;23.028;2023-05-14T08:59:28;15.77;;;11.47;;
11344;SDS011;5727;42.600;23.028;2023-05-14T09:01:55;14.17;;;11.07;;
11344;SDS011;5727;42.600;23.028;2023-05-14T09:04:24;16.90;;;10.43;;
11344;SDS011;5727;42.600;23.028;2023-05-14T09:06:53;12.03;;;9.70;;
11344;SDS011;5727;42.600;23.028;2023-05-14T09:09:21;14.13;;;11.27;;
11344;SDS011;5727;42.600;23.028;2023-05-14T09:11:48;11.37;;;9.90;;
11344;SDS011;5727;42.600;23.028;2023-05-14T09:14:16;14.67;;;11.50;;
11344;SDS011;5727;42.600;23.028;2023-05-14T09:16:43;14.50;;;11.90;;
11344;SDS011;5727;42.600;23.028;2023-05-14T09:19:11;16.97;;;13.07;;
11344;SDS011;5727;42.600;23.028;2023-05-14T09:21:39;16.60;;;13.33;;
11344;SDS011;5727;42.600;23.028;2023-05-14T09:24:06;18.50;;;14.30;;
11344;SDS011;5727;42.600;23.028;2023-05-14T09:26:34;18.23;;;15.00;;
11344;SDS011;5727;42.600;23.028;2023-05-14T09:29:01;17.77;;;14.20;;
11344;SDS011;5727;42.600;23.028;2023-05-14T09:31:28;13.30;;;11.30;;
11344;SDS011;5727;42.600;23.028;2023-05-14T09:33:55;13.47;;;11.37;;
11344;SDS011;5727;42.600;23.028;2023-05-14T09:36:23;17.53;;;12.87;;
11344;SDS011;5727;42.600;23.028;2023-05-14T09:38:52;16.23;;;12.57;;
11344;SDS011;5727;42.600;23.028;2023-05-14T09:41:22;15.47;;;13.53;;
11344;SDS011;5727;42.600;23.028;2023-05-14T09:43:49;14.50;;;12.43;;
11344;SDS011;5727;42.600;23.028;2023-05-14T09:46:16;14.20;;;12.13;;
11344;SDS011;5727;42.600;23.028;2023-05-14T09:48:44;13.07;;;11.67;;
11344;SDS011;5727;42.600;23.028;2023-05-14T09:51:11;17.33;;;13.90;;
11344;SDS011;5727;42.600;23.028;2023-05-14T09:53:38;13.77;;;11.87;;
11344;SDS011;5727;42.600;23.028;2023-05-14T09:56:07;11.23;;;10.10;;
11344;SDS011;5727;42.600;23.028;2023-05-14T09:58:34;12.57;;;11.20;;
11344;SDS011;5727;42.600;23.028;2023-05-14T10:01:01;10.70;;;9.60;;
11344;SDS011;5727;42.600;23.028;2023-05-14T10:03:28;11.97;;;10.70;;
11344;SDS011;5727;42.600;23.028;2023-05-14T10:05:56;13.63;;;12.20;;
11344;SDS011;5727;42.600;23.028;2023-05-14T10:08:29;14.03;;;10.90;;
11344;SDS011;5727;42.600;23.028;2023-05-14T10:11:00;14.23;;;11.80;;
11344;SDS011;5727;42.600;23.028;2023-05-14T10:13:30;10.67;;;9.57;;
11344;SDS011;5727;42.600;23.028;2023-05-14T10:16:05;16.30;;;11.23;;
11344;SDS011;5727;42.600;23.028;2023-05-14T10:18:38;16.47;;;10.97;;
11344;SDS011;5727;42.600;23.028;2023-05-14T10:21:09;11.67;;;10.47;;
11344;SDS011;5727;42.600;23.028;2023-05-14T10:23:36;12.23;;;10.73;;
11344;SDS011;5727;42.600;23.028;2023-05-14T10:26:04;14.50;;;11.37;;
11344;SDS011;5727;42.600;23.028;2023-05-14T10:28:33;11.57;;;10.37;;
11344;SDS011;5727;42.600;23.028;2023-05-14T10:31:00;15.87;;;10.97;;
11344;SDS011;5727;42.600;23.028;2023-05-14T10:33:27;14.13;;;11.63;;
11344;SDS011;5727;42.600;23.028;2023-05-14T10:35:55;17.57;;;12.00;;
11344;SDS011;5727;42.600;23.028;2023-05-14T10:38:25;14.93;;;12.07;;
11344;SDS011;5727;42.600;23.028;2023-05-14T10:40:55;16.47;;;12.87;;
11344;SDS011;5727;42.600;23.028;2023-05-14T10:43:23;16.27;;;13.60;;
11344;SDS011;5727;42.600;23.028;2023-05-14T10:45:53;19.43;;;13.93;;
11344;SDS011;5727;42.600;23.028;2023-05-14T10:48:20;14.83;;;11.10;;
11344;SDS011;5727;42.600;23.028;2023-05-14T10:50:47;12.13;;;10.70;;
11344;SDS011;5727;42.600;23.028;2023-05-14T10:53:15;13.17;;;10.00;;
11344;SDS011;5727;42.600;23.028;2023-05-14T10:55:43;11.47;;;10.27;;
11344;SDS011;5727;42.600;23.028;2023-05-14T10:58:10;9.97;;;8.87;;
11344;SDS011;5727;42.600;23.028;2023-05-14T11:00:37;10.47;;;9.13;;
11344;SDS011;5727;42.600;23.028;2023-05-14T11:03:06;11.10;;;9.23;;
11344;SDS011;5727;42.600;23.028;2023-05-14T11:05:33;12.47;;;10.20;;
11344;SDS011;5727;42.600;23.028;2023-05-14T11:08:02;10.40;;;9.40;;
11344;SDS011;5727;42.600;23.028;2023-05-14T11:10:31;12.03;;;9.67;;
11344;SDS011;5727;42.600;23.028;2023-05-14T11:12:58;10.00;;;8.40;;
11344;SDS011;5727;42.600;23.028;2023-05-14T11:15:25;8.57;;;7.10;;
11344;SDS011;5727;42.600;23.028;2023-05-14T11:17:53;8.57;;;7.20;;
11344;SDS011;5727;42.600;23.028;2023-05-14T11:20:21;9.53;;;7.97;;
11344;SDS011;5727;42.600;23.028;2023-05-14T11:22:48;11.73;;;9.70;;
11344;SDS011;5727;42.600;23.028;2023-05-14T11:25:16;12.63;;;10.30;;
11344;SDS011;5727;42.600;23.028;2023-05-14T11:27:43;14.33;;;11.23;;
11344;SDS011;5727;42.600;23.028;2023-05-14T11:30:12;10.73;;;9.60;;
11344;SDS011;5727;42.600;23.028;2023-05-14T11:32:40;9.70;;;8.77;;
11344;SDS011;5727;42.600;23.028;2023-05-14T11:35:08;9.87;;;8.17;;
11344;SDS011;5727;42.600;23.028;2023-05-14T11:37:37;10.60;;;9.20;;
11344;SDS011;5727;42.600;23.028;2023-05-14T11:40:05;11.90;;;8.77;;
11344;SDS011;5727;42.600;23.028;2023-05-14T11:42:35;9.00;;;7.27;;
11344;SDS011;5727;42.600;23.028;2023-05-14T11:45:02;7.53;;;6.83;;
11344;SDS011;5727;42.600;23.028;2023-05-14T11:47:30;8.77;;;7.53;;
11344;SDS011;5727;42.600;23.028;2023-05-14T11:49:56;14.57;;;9.63;;
11344;SDS011;5727;42.600;23.028;2023-05-14T11:52:24;13.20;;;9.43;;
11344;SDS011;5727;42.600;23.028;2023-05-14T11:54:53;16.70;;;10.73;;
11344;SDS011;5727;42.600;23.028;2023-05-14T11:57:19;17.50;;;11.33;;
11344;SDS011;5727;42.600;23.028;2023-05-14T11:59:47;17.77;;;10.17;;
11344;SDS011;5727;42.600;23.028;2023-05-14T12:02:20;14.40;;;8.90;;
11344;SDS011;5727;42.600;23.028;2023-05-14T12:04:48;15.13;;;8.40;;
11344;SDS011;5727;42.600;23.028;2023-05-14T12:07:16;14.47;;;9.90;;
11344;SDS011;5727;42.600;23.028;2023-05-14T12:09:44;13.53;;;9.63;;
11344;SDS011;5727;42.600;23.028;2023-05-14T12:12:14;11.33;;;7.27;;
11344;SDS011;5727;42.600;23.028;2023-05-14T12:14:43;5.70;;;5.10;;
11344;SDS011;5727;42.600;23.028;2023-05-14T12:17:11;6.43;;;4.37;;
11344;SDS011;5727;42.600;23.028;2023-05-14T12:19:39;10.13;;;6.13;;
11344;SDS011;5727;42.600;23.028;2023-05-14T12:22:07;15.53;;;8.57;;
11344;SDS011;5727;42.600;23.028;2023-05-14T12:24:34;11.83;;;8.23;;
11344;SDS011;5727;42.600;23.028;2023-05-14T12:27:01;12.63;;;8.43;;
11344;SDS011;5727;42.600;23.028;2023-05-14T12:29:33;6.37;;;4.10;;
11344;SDS011;5727;42.600;23.028;2023-05-14T12:32:01;7.37;;;4.57;;
11344;SDS011;5727;42.600;23.028;2023-05-14T12:34:32;7.13;;;4.60;;
11344;SDS011;5727;42.600;23.028;2023-05-14T12:36:59;9.33;;;6.57;;
11344;SDS011;5727;42.600;23.028;2023-05-14T12:39:26;8.63;;;6.77;;
11344;SDS011;5727;42.600;23.028;2023-05-14T12:41:53;9.13;;;6.83;;
11344;SDS011;5727;42.600;23.028;2023-05-14T12:44:19;9.93;;;6.80;;
11344;SDS011;5727;42.600;23.028;2023-05-14T12:46:48;6.77;;;4.63;;
11344;SDS011;5727;42.600;23.028;2023-05-14T12:49:14;8.13;;;5.50;;
11344;SDS011;5727;42.600;23.028;2023-05-14T12:51:41;6.40;;;4.40;;
11344;SDS011;5727;42.600;23.028;2023-05-14T12:54:08;4.80;;;4.30;;
11344;SDS011;5727;42.600;23.028;2023-05-14T12:56:36;7.03;;;4.63;;
11344;SDS011;5727;42.600;23.028;2023-05-14T12:59:03;4.67;;;4.17;;
11344;SDS011;5727;42.600;23.028;2023-05-14T13:01:30;5.73;;;4.87;;
11344;SDS011;5727;42.600;23.028;2023-05-14T13:03:58;6.40;;;5.20;;
11344;SDS011;5727;42.600;23.028;2023-05-14T13:06:25;7.07;;;5.23;;
11344;SDS011;5727;42.600;23.028;2023-05-14T13:08:51;5.93;;;5.43;;
11344;SDS011;5727;42.600;23.028;2023-05-14T13:11:18;5.83;;;5.27;;
11344;SDS011;5727;42.600;23.028;2023-05-14T13:13:45;6.87;;;6.17;;
11344;SDS011;5727;42.600;23.028;2023-05-14T13:16:11;7.17;;;6.30;;
11344;SDS011;5727;42.600;23.028;2023-05-14T13:18:40;7.43;;;6.57;;
11344;SDS011;5727;42.600;23.028;2023-05-14T13:21:08;8.73;;;5.37;;
11344;SDS011;5727;42.600;23.028;2023-05-14T13:23:36;6.07;;;5.50;;
11344;SDS011;5727;42.600;23.028;2023-05-14T13:26:03;6.47;;;5.57;;
11344;SDS011;5727;42.600;23.028;2023-05-14T13:28:30;9.30;;;6.87;;
11344;SDS011;5727;42.600;23.028;2023-05-14T13:31:03;6.40;;;5.80;;
11344;SDS011;5727;42.600;23.028;2023-05-14T13:33:32;7.13;;;6.43;;
11344;SDS011;5727;42.600;23.028;2023-05-14T13:35:59;6.67;;;5.97;;
11344;SDS011;5727;42.600;23.028;2023-05-14T13:38:28;8.07;;;7.20;;
11344;SDS011;5727;42.600;23.028;2023-05-14T13:40:55;10.43;;;8.23;;
11344;SDS011;5727;42.600;23.028;2023-05-14T13:43:26;10.40;;;7.37;;
11344;SDS011;5727;42.600;23.028;2023-05-14T13:45:53;9.80;;;8.27;;
11344;SDS011;5727;42.600;23.028;2023-05-14T13:48:19;9.87;;;8.87;;
11344;SDS011;5727;42.600;23.028;2023-05-14T13:50:46;11.23;;;8.57;;
11344;SDS011;5727;42.600;23.028;2023-05-14T13:53:13;8.87;;;7.97;;
11344;SDS011;5727;42.600;23.028;2023-05-14T13:55:41;10.83;;;8.80;;
11344;SDS011;5727;42.600;23.028;2023-05-14T13:58:08;10.47;;;8.93;;
11344;SDS011;5727;42.600;23.028;2023-05-14T14:00:35;11.13;;;8.30;;
11344;SDS011;5727;42.600;23.028;2023-05-14T14:03:01;9.20;;;8.27;;
11344;SDS011;5727;42.600;23.028;2023-05-14T14:05:28;9.17;;;8.27;;
11344;SDS011;5727;42.600;23.028;2023-05-14T14:07:55;8.63;;;7.67;;
11344;SDS011;5727;42.600;23.028;2023-05-14T14:10:22;10.70;;;9.40;;
11344;SDS011;5727;42.600;23.028;2023-05-14T14:12:51;10.03;;;8.87;;
11344;SDS011;5727;42.600;23.028;2023-05-14T14:15:17;9.63;;;8.40;;
11344;SDS011;5727;42.600;23.028;2023-05-14T14:17:44;9.57;;;8.67;;
11344;SDS011;5727;42.600;23.028;2023-05-14T14:20:11;11.00;;;9.90;;
11344;SDS011;5727;42.600;23.028;2023-05-14T14:22:38;10.70;;;9.70;;
11344;SDS011;5727;42.600;23.028;2023-05-14T14:25:06;12.13;;;9.90;;
11344;SDS011;5727;42.600;23.028;2023-05-14T14:27:34;9.23;;;8.30;;
11344;SDS011;5727;42.600;23.028;2023-05-14T14:30:04;11.20;;;10.17;;
11344;SDS011;5727;42.600;23.028;2023-05-14T14:32:33;10.67;;;9.63;;
11344;SDS011;5727;42.600;23.028;2023-05-14T14:35:00;10.70;;;9.70;;
11344;SDS011;5727;42.600;23.028;2023-05-14T14:37:27;11.97;;;10.73;;